Home   Weather   India   Bundi   Past weeks
Flag for India

Past Weather in Bundi, Rajasthan, India — Yesterday and Last 2 Weeks

Currently: 57 °F. Haze. (Weather station: Jaipur / Sanganer, India). See more current weather

Past Weather in Bundi — Graph

°F

Bundi Temperature Yesterday

Maximum temperature yesterday: 73 °F (at 4:00 pm)
Minimum temperature yesterday: 45 °F (at 6:30 am)
Average temperature yesterday: 59 °F

High & Low Weather Summary for the Past Weeks

 TemperatureHumidityPressure
High73 °F (Jan 27, 4:00 pm)94% (Jan 13, 4:00 am)30.21 "Hg (Jan 13, 4:00 am)
Low41 °F (Jan 16, 7:00 am)11% (Jan 17, 3:30 pm)29.86 "Hg (Jan 13, 2:00 am)
Average59 °F59%30.05 "Hg
* Reported Jan 12 10:30 pm — Jan 27 11:00 pm, Bundi. Weather by CustomWeather, © 2023

Note: Actual official high and low records may vary slightly from our data, if they occured in-between our weather recording intervals... More about our weather records

Bundi Weather History for the Previous 24 Hours

Scroll right to see more
 ConditionsComfort  
Time TempWeatherWind HumidityBarometerVisibility
11:00 pm
Fri, Jan 27
57 °FHaze.3 mph44%30.09 "Hg2 mi
10:30 pm57 °FHaze.5 mph44%30.09 "Hg2 mi
9:30 pm59 °FHaze.5 mph36%30.09 "Hg2 mi
9:00 pm61 °FHaze.5 mph34%30.09 "Hg2 mi
8:30 pm61 °FHaze.3 mph31%30.09 "Hg2 mi
8:00 pm63 °FHaze.2 mph30%30.09 "Hg2 mi
7:30 pm64 °FHaze.2 mph26%30.09 "Hg2 mi
7:00 pm64 °FHaze.3 mph28%30.07 "Hg2 mi
6:30 pm66 °FClear.2 mph24%30.07 "Hg2 mi
5:30 pm70 °FClear.3 mph21%30.07 "Hg4 mi
5:00 pm72 °FClear.3 mph22%30.07 "Hg4 mi
4:30 pm72 °FClear.3 mph19%30.04 "Hg4 mi
4:00 pm73 °FClear.6 mph15%30.04 "Hg4 mi
3:30 pm72 °FClear.6 mph17%30.07 "Hg4 mi
3:00 pm72 °FClear.7 mph20%30.07 "Hg4 mi
2:30 pm72 °FClear.2 mph20%30.07 "Hg4 mi
2:00 pm72 °FClear.2 mph17%30.09 "Hg4 mi
1:30 pm70 °FHaze.2 mph21%30.09 "Hg3 mi
1:00 pm68 °FHaze.2 mph24%30.12 "Hg3 mi
12:30 pm68 °FHaze.3 mph26%30.15 "Hg3 mi
11:30 am64 °FHaze.3 mph32%30.18 "Hg3 mi
11:00 am63 °FHaze.5 mph34%30.18 "Hg2 mi
10:30 am61 °FHaze.3 mph42%30.21 "Hg2 mi
10:00 am59 °FHaze.2 mph51%30.21 "Hg2 mi
9:30 am57 °FHaze.No wind63%30.21 "Hg1 mi
9:00 am54 °FHaze.No wind72%30.18 "Hg1 mi
8:30 am50 °FHaze.No wind82%30.18 "Hg1 mi
8:00 am46 °FHaze.No wind82%30.15 "Hg1 mi
7:30 am45 °FClear.No wind76%30.15 "Hg1 mi
7:00 am45 °FClear.No wind76%30.12 "Hg2 mi
6:30 am45 °FHaze.No wind76%30.12 "Hg2 mi
5:00 am46 °FHaze.2 mph71%30.09 "Hg2 mi
4:30 am48 °FHaze.No wind71%30.09 "Hg2 mi
4:00 am46 °FHaze.No wind71%30.09 "Hg2 mi
3:30 am48 °FHaze.No wind66%30.09 "Hg2 mi
3:00 am50 °FHaze.3 mph67%30.09 "Hg2 mi
2:30 am52 °FHaze.2 mph58%30.09 "Hg2 mi
2:00 am54 °FHaze.3 mph58%30.09 "Hg2 mi
1:30 am52 °FHaze.2 mph62%30.12 "Hg2 mi
1:00 am54 °FHaze.2 mph54%30.12 "Hg2 mi
12:30 am54 °FHaze.2 mph54%30.12 "Hg2 mi
12:00 am57 °FHaze.3 mph48%30.12 "Hg2 mi
Weather by CustomWeather, © 2023

See weather overview